Main page
METAR-TAF:

METAR-TAF

Airports :

Federico García Lorca Airport

Granada, Spain

latitude: 37-11N, longitude: 003-47W, elevation: 567 m

Current weather observation

The report was made 36 minutes ago, at 04:00 UTC
Calm wind
Temperature 19°C
Humidity 78%
Pressure 1018 hPa
Visibility 10 km or more
no clouds below 1500 m and no cumulonimbus

METAR: LEGR 160400Z 00000KT CAVOK 19/15 Q1018

Time: 06:36 (04:36 UTC)

Forecast

The report was made 2 hours and 36 minutes ago, at 02:00 UTC
Forecast valid from 16 at 03 UTC to 17 at 03 UTC
Wind 2 kt from variable directions
Visibility 10 km or more
Few clouds at a height of 6000 ft
Becoming
from 16 at 12 UTC to 16 at 14 UTC
Wind 10 kt from the North
Probability 30% :
Temporary
from 16 at 13 UTC to 16 at 20 UTC
Wind 15 kt from the Northwest with gusts up to 25 kt
Scattered clouds at a height of 4000 ft, Cumulonimbus.
thunderstorm, rain

TAF: LEGR 160200Z 1603/1703 VRB02KT 9999 FEW060 TX33/1614Z TN17/1606Z BECMG 1612/1614 36010KT PROB30 TEMPO 1613/1620 32015G25KT TSRA SCT040CB

Weather observations and forecasts of more than 4000 airports (METAR and TAF reports).

The available stations are represented by yellow and red dots on the map.

Hover mouse over dot to see the name of the station.

Then click to see weather observations and forecasts.

To change the map : click on the green buttons with a black cross to zoom in, on the green button with a dash to zoom out, or on the green arrows for adjacent maps.


METAR-TAF: